sensor_id;sensor_type;location;lat;lon;timestamp;P1;durP1;ratioP1;P2;durP2;ratioP2
19969;SDS011;10146;47.754;9.566;2023-02-26T00:02:22;7.15;;;4.88;;
19969;SDS011;10146;47.754;9.566;2023-02-26T00:04:47;8.07;;;5.00;;
19969;SDS011;10146;47.754;9.566;2023-02-26T00:07:13;7.68;;;5.13;;
19969;SDS011;10146;47.754;9.566;2023-02-26T00:09:38;8.48;;;5.18;;
19969;SDS011;10146;47.754;9.566;2023-02-26T00:12:04;6.60;;;5.30;;
19969;SDS011;10146;47.754;9.566;2023-02-26T00:14:30;5.75;;;5.07;;
19969;SDS011;10146;47.754;9.566;2023-02-26T00:20:05;6.85;;;5.25;;
19969;SDS011;10146;47.754;9.566;2023-02-26T00:22:33;6.70;;;4.40;;
19969;SDS011;10146;47.754;9.566;2023-02-26T00:24:58;6.32;;;4.47;;
19969;SDS011;10146;47.754;9.566;2023-02-26T00:27:24;4.50;;;4.07;;
19969;SDS011;10146;47.754;9.566;2023-02-26T00:29:50;7.10;;;4.53;;
19969;SDS011;10146;47.754;9.566;2023-02-26T00:32:16;5.18;;;4.40;;
19969;SDS011;10146;47.754;9.566;2023-02-26T00:34:42;4.95;;;4.38;;
19969;SDS011;10146;47.754;9.566;2023-02-26T00:42:13;4.78;;;3.95;;
19969;SDS011;10146;47.754;9.566;2023-02-26T00:44:39;5.82;;;4.00;;
19969;SDS011;10146;47.754;9.566;2023-02-26T00:55:40;5.28;;;4.20;;
19969;SDS011;10146;47.754;9.566;2023-02-26T00:58:06;4.55;;;3.90;;
19969;SDS011;10146;47.754;9.566;2023-02-26T01:00:31;4.18;;;3.70;;
19969;SDS011;10146;47.754;9.566;2023-02-26T01:02:57;3.92;;;3.53;;
19969;SDS011;10146;47.754;9.566;2023-02-26T01:05:24;6.35;;;3.88;;
19969;SDS011;10146;47.754;9.566;2023-02-26T01:07:56;5.68;;;3.63;;
19969;SDS011;10146;47.754;9.566;2023-02-26T01:10:23;3.53;;;3.22;;
19969;SDS011;10146;47.754;9.566;2023-02-26T01:12:50;5.70;;;3.40;;
19969;SDS011;10146;47.754;9.566;2023-02-26T01:15:16;4.60;;;3.30;;
19969;SDS011;10146;47.754;9.566;2023-02-26T01:17:44;3.75;;;3.40;;
19969;SDS011;10146;47.754;9.566;2023-02-26T01:22:53;4.22;;;3.50;;
19969;SDS011;10146;47.754;9.566;2023-02-26T01:25:26;3.83;;;3.53;;
19969;SDS011;10146;47.754;9.566;2023-02-26T01:27:58;3.78;;;3.30;;
19969;SDS011;10146;47.754;9.566;2023-02-26T01:30:24;5.55;;;3.60;;
19969;SDS011;10146;47.754;9.566;2023-02-26T01:44:04;3.90;;;3.60;;
19969;SDS011;10146;47.754;9.566;2023-02-26T01:49:44;5.50;;;3.58;;
19969;SDS011;10146;47.754;9.566;2023-02-26T01:54:54;4.88;;;3.95;;
19969;SDS011;10146;47.754;9.566;2023-02-26T01:57:20;4.20;;;3.80;;
19969;SDS011;10146;47.754;9.566;2023-02-26T01:59:47;4.95;;;3.85;;
19969;SDS011;10146;47.754;9.566;2023-02-26T02:02:18;4.75;;;4.28;;
19969;SDS011;10146;47.754;9.566;2023-02-26T02:04:46;4.40;;;3.75;;
19969;SDS011;10146;47.754;9.566;2023-02-26T02:07:13;6.43;;;4.50;;
19969;SDS011;10146;47.754;9.566;2023-02-26T02:09:39;4.88;;;4.07;;
19969;SDS011;10146;47.754;9.566;2023-02-26T02:12:20;5.40;;;4.90;;
19969;SDS011;10146;47.754;9.566;2023-02-26T02:23:08;4.82;;;4.22;;
19969;SDS011;10146;47.754;9.566;2023-02-26T02:25:54;5.22;;;4.72;;
19969;SDS011;10146;47.754;9.566;2023-02-26T02:31:39;5.95;;;4.70;;
19969;SDS011;10146;47.754;9.566;2023-02-26T02:34:18;5.50;;;4.80;;
19969;SDS011;10146;47.754;9.566;2023-02-26T02:40:06;5.68;;;4.90;;
19969;SDS011;10146;47.754;9.566;2023-02-26T02:45:24;6.43;;;4.47;;
19969;SDS011;10146;47.754;9.566;2023-02-26T02:48:40;4.68;;;4.22;;
19969;SDS011;10146;47.754;9.566;2023-02-26T02:51:09;4.35;;;3.95;;
19969;SDS011;10146;47.754;9.566;2023-02-26T02:53:50;4.28;;;3.70;;
19969;SDS011;10146;47.754;9.566;2023-02-26T02:56:24;4.45;;;4.05;;
19969;SDS011;10146;47.754;9.566;2023-02-26T03:02:46;4.13;;;3.75;;
19969;SDS011;10146;47.754;9.566;2023-02-26T03:04:43;4.82;;;3.30;;
19969;SDS011;10146;47.754;9.566;2023-02-26T03:07:09;4.15;;;3.40;;
19969;SDS011;10146;47.754;9.566;2023-02-26T03:09:35;4.55;;;3.10;;
19969;SDS011;10146;47.754;9.566;2023-02-26T03:12:01;3.15;;;2.85;;
19969;SDS011;10146;47.754;9.566;2023-02-26T03:14:27;3.83;;;3.28;;
19969;SDS011;10146;47.754;9.566;2023-02-26T03:17:08;4.88;;;3.00;;
19969;SDS011;10146;47.754;9.566;2023-02-26T03:25:18;4.05;;;2.47;;
19969;SDS011;10146;47.754;9.566;2023-02-26T03:31:06;5.03;;;2.10;;
19969;SDS011;10146;47.754;9.566;2023-02-26T03:36:17;4.05;;;1.95;;
19969;SDS011;10146;47.754;9.566;2023-02-26T03:41:43;2.45;;;1.88;;
19969;SDS011;10146;47.754;9.566;2023-02-26T03:44:20;3.65;;;2.20;;
19969;SDS011;10146;47.754;9.566;2023-02-26T03:47:04;3.03;;;2.20;;
19969;SDS011;10146;47.754;9.566;2023-02-26T03:49:40;4.25;;;2.63;;
19969;SDS011;10146;47.754;9.566;2023-02-26T03:52:09;3.60;;;2.38;;
19969;SDS011;10146;47.754;9.566;2023-02-26T03:54:38;3.05;;;1.95;;
19969;SDS011;10146;47.754;9.566;2023-02-26T03:57:07;4.63;;;2.60;;
19969;SDS011;10146;47.754;9.566;2023-02-26T03:59:33;3.20;;;2.38;;
19969;SDS011;10146;47.754;9.566;2023-02-26T04:02:00;2.78;;;2.20;;
19969;SDS011;10146;47.754;9.566;2023-02-26T04:04:41;3.42;;;2.00;;
19969;SDS011;10146;47.754;9.566;2023-02-26T04:07:09;2.72;;;2.10;;
19969;SDS011;10146;47.754;9.566;2023-02-26T04:09:36;2.63;;;2.35;;
19969;SDS011;10146;47.754;9.566;2023-02-26T04:12:01;4.53;;;2.50;;
19969;SDS011;10146;47.754;9.566;2023-02-26T04:14:28;4.53;;;2.00;;
19969;SDS011;10146;47.754;9.566;2023-02-26T04:16:53;2.72;;;2.05;;
19969;SDS011;10146;47.754;9.566;2023-02-26T04:19:19;3.40;;;1.80;;
19969;SDS011;10146;47.754;9.566;2023-02-26T04:21:44;4.25;;;2.28;;
19969;SDS011;10146;47.754;9.566;2023-02-26T04:24:10;3.70;;;2.30;;
19969;SDS011;10146;47.754;9.566;2023-02-26T04:26:36;3.45;;;2.35;;
19969;SDS011;10146;47.754;9.566;2023-02-26T04:29:02;3.03;;;1.88;;
19969;SDS011;10146;47.754;9.566;2023-02-26T04:31:28;2.88;;;2.17;;
19969;SDS011;10146;47.754;9.566;2023-02-26T04:33:53;3.33;;;2.28;;
19969;SDS011;10146;47.754;9.566;2023-02-26T04:36:19;3.67;;;2.30;;
19969;SDS011;10146;47.754;9.566;2023-02-26T04:38:44;4.55;;;2.53;;
19969;SDS011;10146;47.754;9.566;2023-02-26T04:41:10;3.40;;;2.20;;
19969;SDS011;10146;47.754;9.566;2023-02-26T04:43:36;4.18;;;2.28;;
19969;SDS011;10146;47.754;9.566;2023-02-26T04:46:02;4.28;;;2.35;;
19969;SDS011;10146;47.754;9.566;2023-02-26T04:48:27;4.97;;;2.65;;
19969;SDS011;10146;47.754;9.566;2023-02-26T04:50:53;6.80;;;3.10;;
19969;SDS011;10146;47.754;9.566;2023-02-26T04:53:19;3.00;;;2.50;;
19969;SDS011;10146;47.754;9.566;2023-02-26T04:55:46;2.65;;;2.40;;
19969;SDS011;10146;47.754;9.566;2023-02-26T04:58:13;4.07;;;2.83;;
19969;SDS011;10146;47.754;9.566;2023-02-26T05:00:38;2.95;;;2.55;;
19969;SDS011;10146;47.754;9.566;2023-02-26T05:03:04;3.72;;;2.97;;
19969;SDS011;10146;47.754;9.566;2023-02-26T05:05:30;5.90;;;3.03;;
19969;SDS011;10146;47.754;9.566;2023-02-26T05:07:55;4.10;;;3.28;;
19969;SDS011;10146;47.754;9.566;2023-02-26T05:10:21;4.50;;;3.33;;
19969;SDS011;10146;47.754;9.566;2023-02-26T05:12:48;4.68;;;3.60;;
19969;SDS011;10146;47.754;9.566;2023-02-26T05:15:14;4.30;;;3.47;;
19969;SDS011;10146;47.754;9.566;2023-02-26T05:17:39;5.25;;;3.60;;
19969;SDS011;10146;47.754;9.566;2023-02-26T05:20:05;4.75;;;3.83;;
19969;SDS011;10146;47.754;9.566;2023-02-26T05:22:34;6.70;;;3.97;;
19969;SDS011;10146;47.754;9.566;2023-02-26T05:25:00;5.28;;;4.40;;
19969;SDS011;10146;47.754;9.566;2023-02-26T05:27:26;6.93;;;4.05;;
19969;SDS011;10146;47.754;9.566;2023-02-26T05:29:52;6.10;;;4.30;;
19969;SDS011;10146;47.754;9.566;2023-02-26T05:32:17;7.13;;;4.22;;
19969;SDS011;10146;47.754;9.566;2023-02-26T05:34:43;5.82;;;4.30;;
19969;SDS011;10146;47.754;9.566;2023-02-26T05:37:08;5.85;;;3.80;;
19969;SDS011;10146;47.754;9.566;2023-02-26T05:39:34;4.32;;;3.90;;
19969;SDS011;10146;47.754;9.566;2023-02-26T05:42:00;4.07;;;3.67;;
19969;SDS011;10146;47.754;9.566;2023-02-26T05:44:25;4.07;;;3.63;;
19969;SDS011;10146;47.754;9.566;2023-02-26T05:46:51;7.03;;;3.60;;
19969;SDS011;10146;47.754;9.566;2023-02-26T05:49:17;3.83;;;3.47;;
19969;SDS011;10146;47.754;9.566;2023-02-26T05:51:42;4.88;;;3.95;;
19969;SDS011;10146;47.754;9.566;2023-02-26T05:54:08;3.45;;;3.15;;
19969;SDS011;10146;47.754;9.566;2023-02-26T05:56:34;4.05;;;3.08;;
19969;SDS011;10146;47.754;9.566;2023-02-26T05:59:00;4.60;;;3.47;;
19969;SDS011;10146;47.754;9.566;2023-02-26T06:01:26;3.65;;;2.90;;
19969;SDS011;10146;47.754;9.566;2023-02-26T06:03:52;4.85;;;3.10;;
19969;SDS011;10146;47.754;9.566;2023-02-26T06:06:17;5.97;;;3.10;;
19969;SDS011;10146;47.754;9.566;2023-02-26T06:08:44;3.25;;;2.92;;
19969;SDS011;10146;47.754;9.566;2023-02-26T06:11:10;5.65;;;3.22;;
19969;SDS011;10146;47.754;9.566;2023-02-26T06:13:36;4.10;;;2.92;;
19969;SDS011;10146;47.754;9.566;2023-02-26T06:16:02;4.90;;;3.28;;
19969;SDS011;10146;47.754;9.566;2023-02-26T06:18:28;3.33;;;2.75;;
19969;SDS011;10146;47.754;9.566;2023-02-26T06:20:56;6.97;;;3.40;;
19969;SDS011;10146;47.754;9.566;2023-02-26T06:23:21;4.38;;;3.10;;
19969;SDS011;10146;47.754;9.566;2023-02-26T06:25:49;3.83;;;3.30;;
19969;SDS011;10146;47.754;9.566;2023-02-26T06:28:16;4.75;;;2.80;;
19969;SDS011;10146;47.754;9.566;2023-02-26T06:30:41;3.58;;;2.80;;
19969;SDS011;10146;47.754;9.566;2023-02-26T06:33:07;6.50;;;3.10;;
19969;SDS011;10146;47.754;9.566;2023-02-26T06:35:33;5.13;;;2.80;;
19969;SDS011;10146;47.754;9.566;2023-02-26T06:37:58;5.75;;;3.13;;
19969;SDS011;10146;47.754;9.566;2023-02-26T06:40:24;5.90;;;2.92;;
19969;SDS011;10146;47.754;9.566;2023-02-26T06:42:49;4.30;;;3.42;;
19969;SDS011;10146;47.754;9.566;2023-02-26T06:45:15;4.10;;;2.97;;
19969;SDS011;10146;47.754;9.566;2023-02-26T06:47:41;4.47;;;3.00;;
19969;SDS011;10146;47.754;9.566;2023-02-26T06:50:07;6.38;;;3.00;;
19969;SDS011;10146;47.754;9.566;2023-02-26T06:52:33;3.30;;;2.80;;
19969;SDS011;10146;47.754;9.566;2023-02-26T06:54:59;6.88;;;3.13;;
19969;SDS011;10146;47.754;9.566;2023-02-26T06:57:24;6.22;;;3.47;;
19969;SDS011;10146;47.754;9.566;2023-02-26T06:59:50;5.65;;;3.10;;
19969;SDS011;10146;47.754;9.566;2023-02-26T07:02:17;5.18;;;2.67;;
19969;SDS011;10146;47.754;9.566;2023-02-26T07:04:44;5.28;;;3.13;;
19969;SDS011;10146;47.754;9.566;2023-02-26T07:07:10;4.40;;;2.97;;
19969;SDS011;10146;47.754;9.566;2023-02-26T07:09:36;5.25;;;2.75;;
19969;SDS011;10146;47.754;9.566;2023-02-26T07:12:02;5.18;;;2.80;;
19969;SDS011;10146;47.754;9.566;2023-02-26T07:14:28;5.45;;;3.30;;
19969;SDS011;10146;47.754;9.566;2023-02-26T07:16:54;7.40;;;3.05;;
19969;SDS011;10146;47.754;9.566;2023-02-26T07:19:19;3.67;;;2.65;;
19969;SDS011;10146;47.754;9.566;2023-02-26T07:21:45;6.72;;;2.83;;
19969;SDS011;10146;47.754;9.566;2023-02-26T07:24:11;3.47;;;3.08;;
19969;SDS011;10146;47.754;9.566;2023-02-26T07:26:37;6.82;;;3.00;;
19969;SDS011;10146;47.754;9.566;2023-02-26T07:29:03;5.20;;;2.92;;
19969;SDS011;10146;47.754;9.566;2023-02-26T07:31:29;5.43;;;3.28;;
19969;SDS011;10146;47.754;9.566;2023-02-26T07:33:54;3.95;;;2.80;;
19969;SDS011;10146;47.754;9.566;2023-02-26T07:36:20;5.13;;;3.25;;
19969;SDS011;10146;47.754;9.566;2023-02-26T07:38:46;4.80;;;2.90;;
19969;SDS011;10146;47.754;9.566;2023-02-26T07:41:11;3.97;;;2.45;;
19969;SDS011;10146;47.754;9.566;2023-02-26T07:43:37;3.65;;;2.70;;
19969;SDS011;10146;47.754;9.566;2023-02-26T07:46:03;5.30;;;3.15;;
19969;SDS011;10146;47.754;9.566;2023-02-26T07:48:28;7.57;;;3.28;;
19969;SDS011;10146;47.754;9.566;2023-02-26T07:50:54;4.72;;;2.40;;
19969;SDS011;10146;47.754;9.566;2023-02-26T07:53:20;3.35;;;2.38;;
19969;SDS011;10146;47.754;9.566;2023-02-26T07:55:46;3.53;;;2.38;;
19969;SDS011;10146;47.754;9.566;2023-02-26T07:58:12;2.55;;;1.90;;
19969;SDS011;10146;47.754;9.566;2023-02-26T08:00:38;4.47;;;2.00;;
19969;SDS011;10146;47.754;9.566;2023-02-26T08:03:03;3.53;;;2.40;;
19969;SDS011;10146;47.754;9.566;2023-02-26T08:05:29;2.63;;;1.70;;
19969;SDS011;10146;47.754;9.566;2023-02-26T08:07:54;4.13;;;1.90;;
19969;SDS011;10146;47.754;9.566;2023-02-26T08:10:20;3.15;;;1.80;;
19969;SDS011;10146;47.754;9.566;2023-02-26T08:12:46;4.07;;;1.95;;
19969;SDS011;10146;47.754;9.566;2023-02-26T08:15:11;4.57;;;2.10;;
19969;SDS011;10146;47.754;9.566;2023-02-26T08:17:38;5.20;;;2.20;;
19969;SDS011;10146;47.754;9.566;2023-02-26T08:20:04;5.22;;;2.42;;
19969;SDS011;10146;47.754;9.566;2023-02-26T08:22:31;4.57;;;2.20;;
19969;SDS011;10146;47.754;9.566;2023-02-26T08:24:56;2.75;;;1.92;;
19969;SDS011;10146;47.754;9.566;2023-02-26T08:27:22;2.58;;;1.83;;
19969;SDS011;10146;47.754;9.566;2023-02-26T08:29:48;3.45;;;2.05;;
19969;SDS011;10146;47.754;9.566;2023-02-26T08:32:14;3.50;;;2.03;;
19969;SDS011;10146;47.754;9.566;2023-02-26T08:34:41;4.20;;;1.85;;
19969;SDS011;10146;47.754;9.566;2023-02-26T08:37:07;3.35;;;1.50;;
19969;SDS011;10146;47.754;9.566;2023-02-26T08:39:35;2.15;;;1.50;;
19969;SDS011;10146;47.754;9.566;2023-02-26T08:42:03;4.70;;;2.10;;
19969;SDS011;10146;47.754;9.566;2023-02-26T08:44:30;6.00;;;3.20;;
19969;SDS011;10146;47.754;9.566;2023-02-26T08:46:56;4.38;;;2.55;;
19969;SDS011;10146;47.754;9.566;2023-02-26T08:49:21;4.82;;;2.10;;
19969;SDS011;10146;47.754;9.566;2023-02-26T08:51:47;3.08;;;2.22;;
19969;SDS011;10146;47.754;9.566;2023-02-26T08:54:12;3.92;;;2.20;;
19969;SDS011;10146;47.754;9.566;2023-02-26T08:56:38;2.97;;;1.98;;
19969;SDS011;10146;47.754;9.566;2023-02-26T08:59:04;4.50;;;2.35;;
19969;SDS011;10146;47.754;9.566;2023-02-26T09:01:30;2.90;;;1.98;;
19969;SDS011;10146;47.754;9.566;2023-02-26T09:03:55;3.08;;;1.92;;
19969;SDS011;10146;47.754;9.566;2023-02-26T09:06:21;3.03;;;1.67;;
19969;SDS011;10146;47.754;9.566;2023-02-26T09:08:47;3.97;;;1.98;;
19969;SDS011;10146;47.754;9.566;2023-02-26T09:11:13;2.03;;;1.70;;
19969;SDS011;10146;47.754;9.566;2023-02-26T09:13:39;2.63;;;2.05;;
19969;SDS011;10146;47.754;9.566;2023-02-26T09:16:05;4.18;;;2.28;;
19969;SDS011;10146;47.754;9.566;2023-02-26T09:18:31;3.47;;;2.25;;
19969;SDS011;10146;47.754;9.566;2023-02-26T09:20:57;3.17;;;1.98;;
19969;SDS011;10146;47.754;9.566;2023-02-26T09:23:23;2.72;;;2.00;;
19969;SDS011;10146;47.754;9.566;2023-02-26T09:25:52;3.60;;;2.20;;
19969;SDS011;10146;47.754;9.566;2023-02-26T09:28:19;2.88;;;2.00;;
19969;SDS011;10146;47.754;9.566;2023-02-26T09:30:45;3.30;;;2.10;;
19969;SDS011;10146;47.754;9.566;2023-02-26T09:33:11;2.20;;;2.00;;
19969;SDS011;10146;47.754;9.566;2023-02-26T09:35:37;2.35;;;1.98;;
19969;SDS011;10146;47.754;9.566;2023-02-26T09:38:03;2.92;;;2.40;;
19969;SDS011;10146;47.754;9.566;2023-02-26T09:40:37;2.35;;;1.85;;
19969;SDS011;10146;47.754;9.566;2023-02-26T09:46:05;4.28;;;2.28;;
19969;SDS011;10146;47.754;9.566;2023-02-26T09:48:55;2.47;;;2.00;;
19969;SDS011;10146;47.754;9.566;2023-02-26T09:51:42;3.53;;;2.47;;
19969;SDS011;10146;47.754;9.566;2023-02-26T09:54:15;3.53;;;1.75;;
19969;SDS011;10146;47.754;9.566;2023-02-26T09:56:48;2.30;;;1.83;;
19969;SDS011;10146;47.754;9.566;2023-02-26T09:59:16;3.55;;;1.70;;
19969;SDS011;10146;47.754;9.566;2023-02-26T10:01:47;3.60;;;1.75;;
19969;SDS011;10146;47.754;9.566;2023-02-26T10:04:47;2.17;;;1.67;;
19969;SDS011;10146;47.754;9.566;2023-02-26T10:10:16;2.75;;;1.77;;
19969;SDS011;10146;47.754;9.566;2023-02-26T10:13:02;2.75;;;2.00;;
19969;SDS011;10146;47.754;9.566;2023-02-26T10:15:34;2.20;;;1.73;;
19969;SDS011;10146;47.754;9.566;2023-02-26T10:18:07;3.28;;;1.33;;
19969;SDS011;10146;47.754;9.566;2023-02-26T10:20:52;4.22;;;1.90;;
19969;SDS011;10146;47.754;9.566;2023-02-26T10:26:22;1.70;;;1.60;;
19969;SDS011;10146;47.754;9.566;2023-02-26T10:31:47;2.78;;;1.83;;
19969;SDS011;10146;47.754;9.566;2023-02-26T10:37:22;3.00;;;1.60;;
19969;SDS011;10146;47.754;9.566;2023-02-26T10:39:49;1.50;;;1.40;;
19969;SDS011;10146;47.754;9.566;2023-02-26T10:42:37;3.72;;;2.63;;
19969;SDS011;10146;47.754;9.566;2023-02-26T10:50:49;2.03;;;1.40;;
19969;SDS011;10146;47.754;9.566;2023-02-26T10:53:20;2.15;;;1.88;;
19969;SDS011;10146;47.754;9.566;2023-02-26T10:58:35;3.35;;;1.75;;
19969;SDS011;10146;47.754;9.566;2023-02-26T11:01:00;2.97;;;1.35;;
19969;SDS011;10146;47.754;9.566;2023-02-26T11:03:35;2.60;;;1.90;;
19969;SDS011;10146;47.754;9.566;2023-02-26T11:06:14;1.65;;;1.30;;
19969;SDS011;10146;47.754;9.566;2023-02-26T11:08:46;2.35;;;1.40;;
19969;SDS011;10146;47.754;9.566;2023-02-26T11:14:05;2.70;;;1.60;;
19969;SDS011;10146;47.754;9.566;2023-02-26T11:16:32;1.83;;;1.45;;
19969;SDS011;10146;47.754;9.566;2023-02-26T11:18:59;1.85;;;1.48;;
19969;SDS011;10146;47.754;9.566;2023-02-26T11:21:29;1.70;;;1.20;;
19969;SDS011;10146;47.754;9.566;2023-02-26T11:24:28;2.00;;;1.50;;
19969;SDS011;10146;47.754;9.566;2023-02-26T11:26:54;1.80;;;1.70;;
19969;SDS011;10146;47.754;9.566;2023-02-26T11:29:23;2.10;;;1.40;;
19969;SDS011;10146;47.754;9.566;2023-02-26T11:31:50;3.10;;;1.90;;
19969;SDS011;10146;47.754;9.566;2023-02-26T11:34:20;2.22;;;1.70;;
19969;SDS011;10146;47.754;9.566;2023-02-26T11:36:48;2.42;;;1.50;;
19969;SDS011;10146;47.754;9.566;2023-02-26T11:39:19;2.08;;;1.48;;
19969;SDS011;10146;47.754;9.566;2023-02-26T11:41:48;5.68;;;2.97;;
19969;SDS011;10146;47.754;9.566;2023-02-26T11:44:18;2.28;;;1.98;;
19969;SDS011;10146;47.754;9.566;2023-02-26T11:46:51;3.47;;;2.45;;
19969;SDS011;10146;47.754;9.566;2023-02-26T11:49:21;5.88;;;3.55;;
19969;SDS011;10146;47.754;9.566;2023-02-26T11:54:36;5.43;;;2.97;;
19969;SDS011;10146;47.754;9.566;2023-02-26T11:57:06;2.67;;;2.38;;
19969;SDS011;10146;47.754;9.566;2023-02-26T11:59:44;2.40;;;2.10;;
19969;SDS011;10146;47.754;9.566;2023-02-26T12:02:14;2.00;;;1.80;;
19969;SDS011;10146;47.754;9.566;2023-02-26T12:04:43;2.72;;;1.60;;
19969;SDS011;10146;47.754;9.566;2023-02-26T12:07:11;3.50;;;1.83;;
19969;SDS011;10146;47.754;9.566;2023-02-26T12:09:38;2.00;;;1.88;;
19969;SDS011;10146;47.754;9.566;2023-02-26T12:12:07;2.53;;;2.00;;
19969;SDS011;10146;47.754;9.566;2023-02-26T12:14:57;2.10;;;1.90;;
19969;SDS011;10146;47.754;9.566;2023-02-26T12:42:29;2.08;;;1.98;;
19969;SDS011;10146;47.754;9.566;2023-02-26T12:45:44;2.45;;;2.25;;
19969;SDS011;10146;47.754;9.566;2023-02-26T12:53:50;2.33;;;1.98;;
19969;SDS011;10146;47.754;9.566;2023-02-26T13:05:15;2.30;;;2.10;;
19969;SDS011;10146;47.754;9.566;2023-02-26T13:08:11;2.00;;;1.90;;
19969;SDS011;10146;47.754;9.566;2023-02-26T13:10:52;3.53;;;1.90;;
19969;SDS011;10146;47.754;9.566;2023-02-26T13:13:31;2.03;;;1.83;;
19969;SDS011;10146;47.754;9.566;2023-02-26T13:19:17;2.75;;;2.55;;
19969;SDS011;10146;47.754;9.566;2023-02-26T13:22:00;2.33;;;1.95;;
19969;SDS011;10146;47.754;9.566;2023-02-26T13:24:40;2.45;;;2.17;;
19969;SDS011;10146;47.754;9.566;2023-02-26T13:27:10;2.33;;;2.13;;
19969;SDS011;10146;47.754;9.566;2023-02-26T13:29:40;2.17;;;2.00;;
19969;SDS011;10146;47.754;9.566;2023-02-26T13:32:14;2.20;;;2.00;;
19969;SDS011;10146;47.754;9.566;2023-02-26T13:37:37;1.98;;;1.88;;
19969;SDS011;10146;47.754;9.566;2023-02-26T13:51:14;2.65;;;2.45;;
19969;SDS011;10146;47.754;9.566;2023-02-26T14:01:54;2.20;;;2.00;;
19969;SDS011;10146;47.754;9.566;2023-02-26T14:06:57;2.75;;;2.53;;
19969;SDS011;10146;47.754;9.566;2023-02-26T14:11:59;1.92;;;1.73;;
19969;SDS011;10146;47.754;9.566;2023-02-26T14:19:37;2.20;;;2.10;;
19969;SDS011;10146;47.754;9.566;2023-02-26T14:24:53;2.28;;;2.15;;
19969;SDS011;10146;47.754;9.566;2023-02-26T14:27:23;2.08;;;1.98;;
19969;SDS011;10146;47.754;9.566;2023-02-26T14:32:52;2.47;;;2.28;;
19969;SDS011;10146;47.754;9.566;2023-02-26T14:35:25;1.95;;;1.85;;
19969;SDS011;10146;47.754;9.566;2023-02-26T14:38:06;2.35;;;2.15;;
19969;SDS011;10146;47.754;9.566;2023-02-26T14:40:47;2.10;;;2.00;;
19969;SDS011;10146;47.754;9.566;2023-02-26T14:43:17;2.85;;;2.55;;
19969;SDS011;10146;47.754;9.566;2023-02-26T14:45:46;2.30;;;2.20;;
19969;SDS011;10146;47.754;9.566;2023-02-26T14:48:17;2.53;;;2.20;;
19969;SDS011;10146;47.754;9.566;2023-02-26T14:51:15;2.60;;;2.35;;
19969;SDS011;10146;47.754;9.566;2023-02-26T14:53:44;2.95;;;2.10;;
19969;SDS011;10146;47.754;9.566;2023-02-26T15:04:51;2.10;;;2.00;;
19969;SDS011;10146;47.754;9.566;2023-02-26T15:16:13;2.75;;;2.55;;
19969;SDS011;10146;47.754;9.566;2023-02-26T15:24:23;4.63;;;4.18;;
19969;SDS011;10146;47.754;9.566;2023-02-26T15:26:51;8.93;;;5.97;;
19969;SDS011;10146;47.754;9.566;2023-02-26T15:29:20;12.65;;;9.05;;
19969;SDS011;10146;47.754;9.566;2023-02-26T15:31:56;3.63;;;3.30;;
19969;SDS011;10146;47.754;9.566;2023-02-26T15:34:25;5.68;;;5.00;;
19969;SDS011;10146;47.754;9.566;2023-02-26T15:36:51;3.10;;;2.90;;
19969;SDS011;10146;47.754;9.566;2023-02-26T15:39:18;3.15;;;2.65;;
19969;SDS011;10146;47.754;9.566;2023-02-26T15:41:47;2.60;;;2.30;;
19969;SDS011;10146;47.754;9.566;2023-02-26T15:44:16;3.05;;;2.38;;
19969;SDS011;10146;47.754;9.566;2023-02-26T15:46:45;2.10;;;2.00;;
19969;SDS011;10146;47.754;9.566;2023-02-26T15:49:18;2.17;;;1.98;;
19969;SDS011;10146;47.754;9.566;2023-02-26T15:51:55;2.20;;;2.00;;
19969;SDS011;10146;47.754;9.566;2023-02-26T15:54:23;2.63;;;2.15;;
19969;SDS011;10146;47.754;9.566;2023-02-26T15:56:52;2.30;;;2.10;;
19969;SDS011;10146;47.754;9.566;2023-02-26T15:59:20;2.17;;;2.08;;
19969;SDS011;10146;47.754;9.566;2023-02-26T16:01:50;2.40;;;2.20;;
19969;SDS011;10146;47.754;9.566;2023-02-26T16:04:17;2.88;;;2.58;;
19969;SDS011;10146;47.754;9.566;2023-02-26T16:06:45;2.35;;;2.15;;
19969;SDS011;10146;47.754;9.566;2023-02-26T16:09:46;5.38;;;4.47;;
19969;SDS011;10146;47.754;9.566;2023-02-26T16:12:11;6.30;;;4.53;;
19969;SDS011;10146;47.754;9.566;2023-02-26T16:14:43;4.97;;;4.00;;
19969;SDS011;10146;47.754;9.566;2023-02-26T16:17:25;4.22;;;3.85;;
19969;SDS011;10146;47.754;9.566;2023-02-26T16:19:55;4.07;;;3.70;;
19969;SDS011;10146;47.754;9.566;2023-02-26T16:24:59;3.00;;;2.80;;
19969;SDS011;10146;47.754;9.566;2023-02-26T16:27:30;3.10;;;2.90;;
19969;SDS011;10146;47.754;9.566;2023-02-26T16:29:57;5.10;;;4.10;;
19969;SDS011;10146;47.754;9.566;2023-02-26T16:32:27;3.63;;;3.33;;
19969;SDS011;10146;47.754;9.566;2023-02-26T16:34:56;4.10;;;3.70;;
19969;SDS011;10146;47.754;9.566;2023-02-26T16:37:25;3.50;;;3.20;;
19969;SDS011;10146;47.754;9.566;2023-02-26T16:39:54;3.78;;;3.47;;
19969;SDS011;10146;47.754;9.566;2023-02-26T16:48:12;3.40;;;3.00;;
19969;SDS011;10146;47.754;9.566;2023-02-26T16:50:41;3.70;;;3.40;;
19969;SDS011;10146;47.754;9.566;2023-02-26T16:53:07;3.63;;;3.17;;
19969;SDS011;10146;47.754;9.566;2023-02-26T16:55:39;3.75;;;3.45;;
19969;SDS011;10146;47.754;9.566;2023-02-26T16:58:06;3.67;;;3.38;;
19969;SDS011;10146;47.754;9.566;2023-02-26T17:00:35;3.78;;;3.42;;
19969;SDS011;10146;47.754;9.566;2023-02-26T17:03:08;4.20;;;3.63;;
19969;SDS011;10146;47.754;9.566;2023-02-26T17:05:38;4.55;;;4.07;;
19969;SDS011;10146;47.754;9.566;2023-02-26T17:08:13;4.47;;;3.80;;
19969;SDS011;10146;47.754;9.566;2023-02-26T17:10:47;3.90;;;3.28;;
19969;SDS011;10146;47.754;9.566;2023-02-26T17:13:40;4.20;;;3.80;;
19969;SDS011;10146;47.754;9.566;2023-02-26T17:16:08;5.25;;;3.88;;
19969;SDS011;10146;47.754;9.566;2023-02-26T17:18:36;4.97;;;3.20;;
19969;SDS011;10146;47.754;9.566;2023-02-26T17:21:02;3.05;;;2.85;;
19969;SDS011;10146;47.754;9.566;2023-02-26T17:23:30;4.28;;;2.83;;
19969;SDS011;10146;47.754;9.566;2023-02-26T17:25:58;3.13;;;2.85;;
19969;SDS011;10146;47.754;9.566;2023-02-26T17:28:27;2.70;;;2.50;;
19969;SDS011;10146;47.754;9.566;2023-02-26T17:31:00;2.50;;;2.15;;
19969;SDS011;10146;47.754;9.566;2023-02-26T17:33:27;2.38;;;2.17;;
19969;SDS011;10146;47.754;9.566;2023-02-26T17:35:57;3.65;;;2.72;;
19969;SDS011;10146;47.754;9.566;2023-02-26T17:38:26;3.50;;;2.25;;
19969;SDS011;10146;47.754;9.566;2023-02-26T17:40:52;3.15;;;2.00;;
19969;SDS011;10146;47.754;9.566;2023-02-26T17:43:20;2.17;;;1.85;;
19969;SDS011;10146;47.754;9.566;2023-02-26T17:45:46;2.50;;;2.30;;
19969;SDS011;10146;47.754;9.566;2023-02-26T17:48:13;1.92;;;1.80;;
19969;SDS011;10146;47.754;9.566;2023-02-26T17:50:54;2.17;;;1.98;;
19969;SDS011;10146;47.754;9.566;2023-02-26T17:53:22;2.58;;;2.13;;
19969;SDS011;10146;47.754;9.566;2023-02-26T17:55:52;2.33;;;2.13;;
19969;SDS011;10146;47.754;9.566;2023-02-26T18:00:53;3.72;;;3.00;;
19969;SDS011;10146;47.754;9.566;2023-02-26T18:03:20;4.07;;;3.60;;
19969;SDS011;10146;47.754;9.566;2023-02-26T18:05:46;2.38;;;2.17;;
19969;SDS011;10146;47.754;9.566;2023-02-26T18:08:18;2.15;;;1.95;;
19969;SDS011;10146;47.754;9.566;2023-02-26T18:10:49;2.25;;;2.05;;
19969;SDS011;10146;47.754;9.566;2023-02-26T18:13:16;1.90;;;1.80;;
19969;SDS011;10146;47.754;9.566;2023-02-26T18:15:43;2.40;;;1.77;;
19969;SDS011;10146;47.754;9.566;2023-02-26T18:18:10;3.03;;;1.95;;
19969;SDS011;10146;47.754;9.566;2023-02-26T18:20:36;1.88;;;1.75;;
19969;SDS011;10146;47.754;9.566;2023-02-26T18:23:02;2.20;;;1.88;;
19969;SDS011;10146;47.754;9.566;2023-02-26T18:25:30;2.30;;;2.10;;
19969;SDS011;10146;47.754;9.566;2023-02-26T18:27:56;2.38;;;2.17;;
19969;SDS011;10146;47.754;9.566;2023-02-26T18:30:26;2.65;;;2.45;;
19969;SDS011;10146;47.754;9.566;2023-02-26T18:32:54;2.72;;;2.53;;
19969;SDS011;10146;47.754;9.566;2023-02-26T18:35:20;3.60;;;2.30;;
19969;SDS011;10146;47.754;9.566;2023-02-26T18:37:47;2.60;;;2.40;;